createdAt,value
2022-08-01T00:00:30.013Z,24.95
2022-08-01T00:01:30.167Z,24.96
2022-08-01T00:02:30.375Z,24.88
2022-08-01T00:03:30.515Z,24.85
2022-08-01T00:04:30.675Z,24.85
2022-08-01T00:05:30.860Z,24.86
2022-08-01T00:06:31.015Z,24.84
2022-08-01T00:07:31.165Z,24.85
2022-08-01T00:08:31.365Z,24.86
2022-08-01T00:09:31.545Z,24.85
2022-08-01T00:10:31.702Z,24.85
2022-08-01T00:11:31.856Z,24.84
2022-08-01T00:12:32.052Z,24.85
2022-08-01T00:13:32.207Z,24.81
2022-08-01T00:14:32.873Z,24.84
2022-08-01T00:15:32.523Z,24.80
2022-08-01T00:16:32.714Z,24.81
2022-08-01T00:17:32.866Z,24.81
2022-08-01T00:18:33.064Z,24.78
2022-08-01T00:19:33.236Z,24.80
2022-08-01T00:20:33.396Z,24.80
2022-08-01T00:21:33.557Z,24.78
2022-08-01T00:22:33.747Z,24.76
2022-08-01T00:23:33.909Z,24.74
2022-08-01T00:24:34.087Z,24.73
2022-08-01T00:25:34.789Z,24.70
2022-08-01T00:26:34.437Z,24.70
2022-08-01T00:27:37.614Z,24.73
2022-08-01T00:28:34.777Z,24.70
2022-08-01T00:30:11.713Z,24.68
2022-08-01T00:30:36.098Z,24.68
2022-08-01T00:31:35.278Z,24.65
2022-08-01T00:32:35.477Z,24.65
2022-08-01T00:33:35.628Z,24.63
2022-08-01T00:34:35.846Z,24.58
2022-08-01T00:35:35.999Z,24.57
2022-08-01T00:36:36.189Z,24.55
2022-08-01T00:37:36.348Z,24.53
2022-08-01T00:38:36.546Z,24.54
2022-08-01T00:39:36.716Z,24.50
2022-08-01T00:40:36.909Z,24.51
2022-08-01T00:41:37.046Z,24.51
2022-08-01T00:42:43.018Z,24.53
2022-08-01T00:43:38.427Z,24.51
2022-08-01T00:44:37.635Z,24.53
2022-08-01T00:45:37.789Z,24.53
2022-08-01T00:46:37.987Z,24.51
2022-08-01T00:47:38.169Z,24.50
2022-08-01T00:48:38.331Z,24.50
2022-08-01T00:49:38.519Z,24.48
2022-08-01T00:50:38.670Z,24.47
2022-08-01T00:51:38.829Z,24.45
2022-08-01T00:52:38.992Z,24.47
2022-08-01T00:53:51.893Z,24.45
2022-08-01T00:54:40.358Z,24.45
2022-08-01T00:55:39.501Z,24.47
2022-08-01T00:56:39.668Z,24.43
2022-08-01T00:58:01.449Z,24.45
2022-08-01T00:58:41.011Z,24.45
2022-08-01T00:59:41.414Z,24.45
2022-08-01T01:00:53.038Z,24.45
2022-08-01T01:01:46.752Z,24.48
2022-08-01T01:02:41.732Z,24.50
2022-08-01T01:03:58.603Z,24.50
2022-08-01T01:04:42.118Z,24.51
2022-08-01T01:05:41.251Z,24.48
2022-08-01T01:06:41.451Z,24.50
2022-08-01T01:07:49.820Z,24.50
2022-08-01T01:08:42.801Z,24.50
2022-08-01T01:09:42.015Z,24.48
2022-08-01T01:10:42.172Z,24.48
2022-08-01T01:11:42.360Z,24.50
2022-08-01T01:12:43.378Z,24.48
2022-08-01T01:13:50.993Z,24.48
2022-08-01T01:14:43.902Z,24.45
2022-08-01T01:15:43.042Z,24.39
2022-08-01T01:16:43.203Z,24.35
2022-08-01T01:17:50.287Z,24.32
2022-08-01T01:18:44.553Z,24.30
2022-08-01T01:19:43.763Z,24.35
2022-08-01T01:20:43.943Z,24.30
2022-08-01T01:21:44.114Z,24.33
2022-08-01T01:22:44.273Z,24.30
2022-08-01T01:23:44.434Z,24.30
2022-08-01T01:24:44.593Z,24.24
2022-08-01T01:25:44.763Z,24.23
2022-08-01T01:26:44.933Z,24.20
2022-08-01T01:27:45.086Z,24.18
2022-08-01T01:28:45.284Z,24.17
2022-08-01T01:30:00.153Z,24.16
2022-08-01T01:30:46.641Z,24.16
2022-08-01T01:31:45.811Z,24.14
2022-08-01T01:32:46.005Z,24.11
2022-08-01T01:33:47.529Z,24.10
2022-08-01T01:34:46.344Z,24.08
2022-08-01T01:35:46.515Z,24.06
2022-08-01T01:36:46.682Z,24.06
2022-08-01T01:37:46.834Z,24.05
2022-08-01T01:38:47.034Z,24.05
2022-08-01T01:39:54.111Z,24.01
2022-08-01T01:40:48.408Z,23.98
2022-08-01T01:41:47.535Z,23.98
2022-08-01T01:42:47.735Z,23.93
2022-08-01T01:43:47.897Z,23.95
2022-08-01T01:44:48.057Z,23.93
2022-08-01T01:45:48.227Z,23.92
2022-08-01T01:46:48.386Z,23.92
2022-08-01T01:47:48.547Z,23.92
2022-08-01T01:48:48.855Z,23.91
2022-08-01T01:49:48.914Z,23.86
2022-08-01T01:50:49.094Z,23.84
2022-08-01T01:51:57.415Z,23.84
2022-08-01T01:52:50.436Z,23.83
2022-08-01T01:53:49.607Z,23.80
2022-08-01T01:54:49.776Z,23.77
2022-08-01T01:55:50.298Z,23.77
2022-08-01T01:56:50.126Z,23.77
2022-08-01T01:57:50.293Z,23.74
2022-08-01T01:58:50.449Z,23.74
2022-08-01T01:59:50.615Z,23.71
2022-08-01T02:00:50.787Z,23.71
2022-08-01T02:02:05.359Z,23.71
2022-08-01T02:02:52.178Z,23.66
2022-08-01T02:03:51.316Z,23.63
2022-08-01T02:04:51.478Z,23.62
2022-08-01T02:05:51.647Z,23.59
2022-08-01T02:06:51.808Z,23.56
2022-08-01T02:07:51.968Z,23.56
2022-08-01T02:08:53.160Z,23.54
2022-08-01T02:09:52.310Z,23.54
2022-08-01T02:10:52.519Z,23.51
2022-08-01T02:12:09.287Z,23.48
2022-08-01T02:12:53.859Z,23.46
2022-08-01T02:13:53.049Z,23.47
2022-08-01T02:14:53.209Z,23.47
2022-08-01T02:15:59.325Z,23.47
2022-08-01T02:16:54.538Z,23.47
2022-08-01T02:17:53.719Z,23.48
2022-08-01T02:18:53.887Z,23.51
2022-08-01T02:19:54.047Z,23.48
2022-08-01T02:20:54.229Z,23.51
2022-08-01T02:21:54.390Z,23.55
2022-08-01T02:22:54.550Z,23.56
2022-08-01T02:23:54.710Z,23.56
2022-08-01T02:24:54.871Z,23.58
2022-08-01T02:26:10.395Z,23.58
2022-08-01T02:26:56.190Z,23.59
2022-08-01T02:27:55.380Z,23.61
2022-08-01T02:28:55.540Z,23.62
2022-08-01T02:29:55.700Z,23.63
2022-08-01T02:30:55.900Z,23.65
2022-08-01T02:31:56.020Z,23.68
2022-08-01T02:32:56.201Z,23.69
2022-08-01T02:33:56.361Z,23.71
2022-08-01T02:34:56.521Z,23.73
2022-08-01T02:36:30.325Z,23.76
2022-08-01T02:36:57.842Z,23.77
2022-08-01T02:37:57.024Z,23.80
2022-08-01T02:38:57.189Z,23.81
2022-08-01T02:39:57.351Z,23.83
2022-08-01T02:40:57.572Z,23.83
2022-08-01T02:41:57.732Z,23.86
2022-08-01T02:42:57.902Z,23.84
2022-08-01T02:43:58.062Z,23.86
2022-08-01T02:44:58.222Z,23.86
2022-08-01T02:45:58.393Z,23.88
2022-08-01T02:46:58.560Z,23.88
2022-08-01T02:47:58.715Z,23.92
2022-08-01T02:48:58.927Z,23.95
2022-08-01T02:49:59.033Z,23.98
2022-08-01T02:50:59.213Z,23.99
2022-08-01T02:51:59.382Z,24.02
2022-08-01T02:52:59.544Z,24.02
2022-08-01T02:53:59.694Z,24.03
2022-08-01T02:54:59.892Z,24.05
2022-08-01T02:56:00.124Z,24.06
2022-08-01T02:57:00.226Z,24.06
2022-08-01T02:58:00.989Z,24.06
2022-08-01T02:59:00.553Z,24.06
2022-08-01T03:00:00.714Z,24.06
2022-08-01T03:01:00.903Z,24.06
2022-08-01T03:02:01.109Z,24.05
2022-08-01T03:03:01.226Z,24.06
2022-08-01T03:04:01.386Z,24.10
2022-08-01T03:05:01.556Z,24.10
2022-08-01T03:06:01.764Z,24.10
2022-08-01T03:07:01.916Z,24.08
2022-08-01T03:08:03.705Z,24.08
2022-08-01T03:09:02.265Z,24.10
2022-08-01T03:10:02.446Z,24.06
2022-08-01T03:11:02.643Z,24.06
2022-08-01T03:12:02.948Z,24.05
2022-08-01T03:13:02.966Z,24.02
2022-08-01T03:14:03.147Z,24.01
2022-08-01T03:15:03.329Z,23.99
2022-08-01T03:16:03.536Z,23.95
2022-08-01T03:17:03.684Z,23.95
2022-08-01T03:18:03.865Z,23.92
2022-08-01T03:19:04.058Z,23.92
2022-08-01T03:20:04.238Z,23.92
2022-08-01T03:21:04.433Z,23.92
2022-08-01T03:22:04.888Z,23.93
2022-08-01T03:23:04.737Z,23.93
2022-08-01T03:24:04.925Z,23.92
2022-08-01T03:25:05.117Z,23.92
2022-08-01T03:26:05.277Z,23.92
2022-08-01T03:27:05.455Z,23.93
2022-08-01T03:28:05.605Z,23.95
2022-08-01T03:29:05.801Z,23.93
2022-08-01T03:30:05.947Z,23.92
2022-08-01T03:31:06.166Z,23.92
2022-08-01T03:32:06.430Z,23.92
2022-08-01T03:33:06.467Z,23.95
2022-08-01T03:34:06.638Z,23.96
2022-08-01T03:35:06.828Z,23.99
2022-08-01T03:36:06.999Z,23.98
2022-08-01T03:37:07.168Z,23.98
2022-08-01T03:38:16.229Z,23.99
2022-08-01T03:39:08.500Z,23.99
2022-08-01T03:40:07.672Z,24.02
2022-08-01T03:41:07.837Z,24.05
2022-08-01T03:42:08.220Z,24.10
2022-08-01T03:43:08.199Z,24.10
2022-08-01T03:44:08.359Z,24.11
2022-08-01T03:45:08.557Z,24.13
2022-08-01T03:46:08.727Z,24.16
2022-08-01T03:47:08.860Z,24.18
2022-08-01T03:48:09.050Z,24.20
2022-08-01T03:49:09.235Z,24.24
2022-08-01T03:50:12.322Z,24.26
2022-08-01T03:51:09.568Z,24.26
2022-08-01T03:52:09.746Z,24.28
2022-08-01T03:53:09.937Z,24.28
2022-08-01T03:54:10.108Z,24.28
2022-08-01T03:55:10.298Z,24.30
2022-08-01T03:56:10.479Z,24.33
2022-08-01T03:57:35.467Z,24.38
2022-08-01T03:58:11.801Z,24.36
2022-08-01T03:59:10.949Z,24.36
2022-08-01T04:00:11.138Z,24.36
2022-08-01T04:01:15.664Z,24.36
2022-08-01T04:02:11.490Z,24.38
2022-08-01T04:03:11.671Z,24.30
2022-08-01T04:04:11.881Z,24.28
2022-08-01T04:05:12.052Z,24.24
2022-08-01T04:06:12.251Z,24.23
2022-08-01T04:07:12.401Z,24.21
2022-08-01T04:08:12.581Z,24.23
2022-08-01T04:09:13.729Z,24.26
2022-08-01T04:10:12.969Z,24.24
2022-08-01T04:11:13.162Z,24.28
2022-08-01T04:12:13.323Z,24.29
2022-08-01T04:13:13.472Z,24.26
2022-08-01T04:14:13.665Z,24.28
2022-08-01T04:15:13.850Z,24.29
2022-08-01T04:16:14.044Z,24.26
2022-08-01T04:17:14.225Z,24.23
2022-08-01T04:18:14.421Z,24.20
2022-08-01T04:19:14.593Z,24.21
2022-08-01T04:20:14.786Z,24.20
2022-08-01T04:21:14.982Z,24.20
2022-08-01T04:22:15.166Z,24.21
2022-08-01T04:23:15.315Z,24.23
2022-08-01T04:24:15.501Z,24.26
2022-08-01T04:25:15.685Z,24.26
2022-08-01T04:26:15.882Z,24.24
2022-08-01T04:27:16.014Z,24.23
2022-08-01T04:28:16.211Z,24.26
2022-08-01T04:29:16.394Z,24.23
2022-08-01T04:30:18.085Z,24.24
2022-08-01T04:31:16.814Z,24.24
2022-08-01T04:32:16.944Z,24.23
2022-08-01T04:33:17.106Z,24.23
2022-08-01T04:34:17.294Z,24.23
2022-08-01T04:35:23.372Z,24.21
2022-08-01T04:36:18.652Z,24.23
2022-08-01T04:37:17.824Z,24.26
2022-08-01T04:38:17.976Z,24.28
2022-08-01T04:39:18.134Z,24.30
2022-08-01T04:40:18.304Z,24.28
2022-08-01T04:41:18.483Z,24.28
2022-08-01T04:42:18.662Z,24.29
2022-08-01T04:43:19.854Z,24.32
2022-08-01T04:44:18.995Z,24.33
2022-08-01T04:45:19.156Z,24.33
2022-08-01T04:46:19.359Z,24.32
2022-08-01T04:47:19.506Z,24.36
2022-08-01T04:48:19.696Z,24.40
2022-08-01T04:49:19.908Z,24.43
2022-08-01T04:50:20.036Z,24.47
2022-08-01T04:51:20.228Z,24.53
2022-08-01T04:52:24.640Z,24.51
2022-08-01T04:53:20.546Z,24.48
2022-08-01T04:54:20.755Z,24.53
2022-08-01T04:55:20.896Z,24.54
2022-08-01T04:56:21.083Z,24.55
2022-08-01T04:57:21.233Z,24.55
2022-08-01T04:58:21.415Z,24.57
2022-08-01T04:59:21.594Z,24.61
2022-08-01T05:00:21.779Z,24.68
2022-08-01T05:01:22.003Z,24.74
2022-08-01T05:02:22.145Z,24.81
2022-08-01T05:03:22.336Z,24.91
2022-08-01T05:04:22.518Z,24.96
2022-08-01T05:05:22.698Z,25.06
2022-08-01T05:06:22.888Z,25.16
2022-08-01T05:07:23.094Z,25.22
2022-08-01T05:08:23.239Z,25.28
2022-08-01T05:09:24.637Z,25.32
2022-08-01T05:10:23.598Z,25.32
2022-08-01T05:11:23.788Z,25.35
2022-08-01T05:12:23.938Z,25.36
2022-08-01T05:13:24.122Z,25.40
2022-08-01T05:14:24.309Z,25.40
2022-08-01T05:15:24.458Z,25.44
2022-08-01T05:16:24.689Z,25.48
2022-08-01T05:17:24.822Z,25.48
2022-08-01T05:18:28.346Z,25.48
2022-08-01T05:19:25.189Z,25.50
2022-08-01T05:20:25.375Z,25.48
2022-08-01T05:21:25.549Z,25.51
2022-08-01T05:22:25.739Z,25.51
2022-08-01T05:23:34.179Z,25.55
2022-08-01T05:24:27.080Z,25.55
2022-08-01T05:25:57.389Z,25.59
2022-08-01T05:26:27.471Z,25.58
2022-08-01T05:27:26.620Z,25.59
2022-08-01T05:28:26.822Z,25.60
2022-08-01T05:29:27.011Z,25.60
2022-08-01T05:30:27.190Z,25.59
2022-08-01T05:31:27.370Z,25.59
2022-08-01T05:32:27.519Z,25.59
2022-08-01T05:33:27.697Z,25.60
2022-08-01T05:34:27.872Z,25.60
2022-08-01T05:35:48.694Z,25.58
2022-08-01T05:36:29.262Z,25.55
2022-08-01T05:37:28.410Z,25.58
2022-08-01T05:38:28.594Z,25.55
2022-08-01T05:39:28.773Z,25.55
2022-08-01T05:40:28.952Z,25.58
2022-08-01T05:41:29.151Z,25.59
2022-08-01T05:42:29.304Z,25.59
2022-08-01T05:43:29.516Z,25.54
2022-08-01T05:44:29.675Z,25.48
2022-08-01T05:45:29.853Z,25.47
2022-08-01T05:46:30.062Z,25.46
2022-08-01T05:47:30.203Z,25.47
2022-08-01T05:48:30.382Z,25.51
2022-08-01T05:49:30.628Z,25.58
2022-08-01T05:50:30.734Z,25.63
2022-08-01T05:51:30.936Z,25.65
2022-08-01T05:52:31.083Z,25.68
2022-08-01T05:53:31.264Z,25.72
2022-08-01T05:54:31.458Z,25.73
2022-08-01T05:55:31.654Z,25.75
2022-08-01T05:56:32.471Z,25.75
2022-08-01T05:57:31.984Z,25.73
2022-08-01T05:58:32.164Z,25.66
2022-08-01T05:59:32.381Z,25.60
2022-08-01T06:00:32.524Z,25.47
2022-08-01T06:01:32.683Z,25.44
2022-08-01T06:02:32.904Z,25.43
2022-08-01T06:03:33.004Z,25.35
2022-08-01T06:04:33.194Z,25.28
2022-08-01T06:05:33.365Z,25.29
2022-08-01T06:06:33.575Z,25.26
2022-08-01T06:07:33.713Z,25.31
2022-08-01T06:08:33.896Z,25.40
2022-08-01T06:09:34.037Z,25.40
2022-08-01T06:10:34.215Z,25.44
2022-08-01T06:11:34.465Z,25.51
2022-08-01T06:12:35.754Z,25.59
2022-08-01T06:13:34.739Z,25.65
2022-08-01T06:14:35.926Z,25.70
2022-08-01T06:15:35.148Z,25.75
2022-08-01T06:16:35.301Z,25.75
2022-08-01T06:17:35.466Z,25.75
2022-08-01T06:18:35.649Z,25.69
2022-08-01T06:19:35.840Z,25.62
2022-08-01T06:20:35.991Z,25.55
2022-08-01T06:21:36.183Z,25.48
2022-08-01T06:22:36.330Z,25.44
2022-08-01T06:23:36.507Z,25.43
2022-08-01T06:24:36.687Z,25.40
2022-08-01T06:25:36.874Z,25.32
2022-08-01T06:26:37.086Z,25.29
2022-08-01T06:27:37.224Z,25.26
2022-08-01T06:28:37.406Z,25.28
2022-08-01T06:29:37.578Z,25.26
2022-08-01T06:30:37.777Z,25.29
2022-08-01T06:31:37.945Z,25.32
2022-08-01T06:32:38.089Z,25.29
2022-08-01T06:33:38.269Z,25.29
2022-08-01T06:34:38.458Z,25.31
2022-08-01T06:35:38.628Z,25.32
2022-08-01T06:36:38.846Z,25.31
2022-08-01T06:37:38.979Z,25.31
2022-08-01T06:38:39.166Z,25.29
2022-08-01T06:39:39.357Z,25.26
2022-08-01T06:40:39.508Z,25.25
2022-08-01T06:41:39.717Z,25.26
2022-08-01T06:42:39.859Z,25.32
2022-08-01T06:43:40.038Z,25.31
2022-08-01T06:44:40.241Z,25.35
2022-08-01T06:45:40.411Z,25.40
2022-08-01T06:46:40.600Z,25.46
2022-08-01T06:47:40.789Z,25.51
2022-08-01T06:48:40.969Z,25.65
2022-08-01T06:49:41.157Z,25.73
2022-08-01T06:50:41.340Z,25.84
2022-08-01T06:51:41.541Z,25.90
2022-08-01T06:52:41.710Z,25.98
2022-08-01T06:53:41.899Z,26.03
2022-08-01T06:54:42.080Z,26.03
2022-08-01T06:55:42.261Z,26.10
2022-08-01T06:56:42.473Z,26.18
2022-08-01T06:57:42.613Z,26.18
2022-08-01T06:58:42.800Z,26.22
2022-08-01T06:59:54.210Z,26.26
2022-08-01T07:00:44.240Z,26.25
2022-08-01T07:01:43.421Z,26.29
2022-08-01T07:02:43.521Z,26.26
2022-08-01T07:03:53.181Z,26.36
2022-08-01T07:04:44.892Z,26.38
2022-08-01T07:05:44.082Z,26.45
2022-08-01T07:06:44.272Z,26.52
2022-08-01T07:07:44.433Z,26.55
2022-08-01T07:08:44.602Z,26.62
2022-08-01T07:09:44.772Z,26.70
2022-08-01T07:10:44.950Z,26.75
2022-08-01T07:11:45.121Z,26.80
2022-08-01T07:12:45.270Z,26.89
2022-08-01T07:13:45.783Z,26.92
2022-08-01T07:14:45.613Z,26.95
2022-08-01T07:15:45.794Z,26.99
2022-08-01T07:16:46.016Z,27.00
2022-08-01T07:17:46.136Z,27.00
2022-08-01T07:18:46.323Z,27.00
2022-08-01T07:19:46.503Z,26.97
2022-08-01T07:20:51.924Z,26.93
2022-08-01T07:21:50.135Z,26.85
2022-08-01T07:22:48.223Z,26.78
2022-08-01T07:23:47.206Z,26.75
2022-08-01T07:24:47.384Z,26.75
2022-08-01T07:25:49.954Z,26.77
2022-08-01T07:26:53.169Z,26.80
2022-08-01T07:27:48.942Z,26.83
2022-08-01T07:28:48.127Z,26.81
2022-08-01T07:29:48.304Z,26.75
2022-08-01T07:30:48.485Z,26.73
2022-08-01T07:31:48.685Z,26.68
2022-08-01T07:32:48.874Z,26.58
2022-08-01T07:33:49.558Z,26.51
2022-08-01T07:34:49.194Z,26.41
2022-08-01T07:35:49.373Z,26.33
2022-08-01T07:36:49.595Z,26.25
2022-08-01T07:37:49.725Z,26.10
2022-08-01T07:38:49.887Z,25.99
2022-08-01T07:39:50.054Z,25.95
2022-08-01T07:40:50.216Z,25.85
2022-08-01T07:42:05.356Z,25.81
2022-08-01T07:42:51.551Z,25.75
2022-08-01T07:43:56.624Z,25.63
2022-08-01T07:44:51.907Z,25.59
2022-08-01T07:45:51.058Z,25.54
2022-08-01T07:46:51.268Z,25.53
2022-08-01T07:47:51.407Z,25.54
2022-08-01T07:48:51.624Z,25.59
2022-08-01T07:49:51.747Z,25.60
2022-08-01T07:50:51.945Z,25.68
2022-08-01T07:52:02.325Z,25.70
2022-08-01T07:52:53.278Z,25.77
2022-08-01T07:53:52.471Z,25.85
2022-08-01T07:54:52.645Z,25.96
2022-08-01T07:55:52.827Z,26.05
2022-08-01T07:56:53.005Z,26.18
2022-08-01T07:57:53.188Z,26.28
2022-08-01T07:58:53.338Z,26.40
2022-08-01T07:59:53.509Z,26.56
2022-08-01T08:00:53.676Z,26.75
2022-08-01T08:01:53.935Z,26.96
2022-08-01T08:02:54.013Z,27.17
2022-08-01T08:03:54.170Z,27.37
2022-08-01T08:04:54.351Z,27.60
2022-08-01T08:05:59.696Z,27.80
2022-08-01T08:06:55.716Z,28.02
2022-08-01T08:07:54.882Z,28.25
2022-08-01T08:08:55.029Z,28.37
2022-08-01T08:09:55.201Z,28.49
2022-08-01T08:10:55.383Z,28.63
2022-08-01T08:11:55.571Z,28.74
2022-08-01T08:12:55.741Z,28.72
2022-08-01T08:13:55.923Z,28.60
2022-08-01T08:14:56.142Z,28.42
2022-08-01T08:15:56.281Z,28.23
2022-08-01T08:16:56.481Z,27.96
2022-08-01T08:17:56.642Z,27.75
2022-08-01T08:18:56.829Z,27.55
2022-08-01T08:19:57.010Z,27.32
2022-08-01T08:20:57.182Z,27.14
2022-08-01T08:21:57.390Z,26.97
2022-08-01T08:22:57.552Z,26.83
2022-08-01T08:23:57.742Z,26.71
2022-08-01T08:25:00.795Z,26.66
2022-08-01T08:25:58.104Z,26.63
2022-08-01T08:26:58.303Z,26.63
2022-08-01T08:27:58.454Z,26.66
2022-08-01T08:28:58.634Z,26.70
2022-08-01T08:29:58.814Z,26.75
2022-08-01T08:30:58.995Z,26.75
2022-08-01T08:31:59.193Z,26.75
2022-08-01T08:32:59.368Z,26.74
2022-08-01T08:33:59.554Z,26.77
2022-08-01T08:34:59.736Z,26.74
2022-08-01T08:35:59.904Z,26.75
2022-08-01T08:37:00.088Z,26.75
2022-08-01T08:38:00.254Z,26.66
2022-08-01T08:39:00.440Z,26.60
2022-08-01T08:40:00.624Z,26.60
2022-08-01T08:41:00.794Z,26.51
2022-08-01T08:42:00.997Z,26.47
2022-08-01T08:43:01.168Z,26.38
2022-08-01T08:44:01.364Z,26.36
2022-08-01T08:45:01.505Z,26.34
2022-08-01T08:46:01.703Z,26.29
2022-08-01T08:47:02.376Z,26.26
2022-08-01T08:48:02.077Z,26.19
2022-08-01T08:49:02.338Z,26.18
2022-08-01T08:50:02.490Z,26.21
2022-08-01T08:51:02.595Z,26.25
2022-08-01T08:52:02.800Z,26.28
2022-08-01T08:53:02.936Z,26.37
2022-08-01T08:54:03.127Z,26.43
2022-08-01T08:55:03.315Z,26.53
2022-08-01T08:56:03.498Z,26.60
2022-08-01T08:57:03.698Z,26.71
2022-08-01T08:58:03.839Z,26.81
2022-08-01T08:59:03.997Z,26.90
2022-08-01T09:00:04.168Z,26.99
2022-08-01T09:01:04.329Z,27.10
2022-08-01T09:02:04.564Z,27.20
2022-08-01T09:03:04.724Z,27.22
2022-08-01T09:04:04.849Z,27.26
2022-08-01T09:05:05.062Z,27.21
2022-08-01T09:06:05.197Z,27.21
2022-08-01T09:07:05.390Z,27.18
2022-08-01T09:08:05.540Z,27.17
2022-08-01T09:09:05.709Z,27.08
2022-08-01T09:10:05.903Z,27.00
2022-08-01T09:11:06.109Z,26.93
2022-08-01T09:12:06.361Z,26.88
2022-08-01T09:13:06.400Z,26.81
2022-08-01T09:14:06.580Z,26.78
2022-08-01T09:15:06.759Z,26.78
2022-08-01T09:16:06.940Z,26.81
2022-08-01T09:17:07.130Z,26.88
2022-08-01T09:18:07.311Z,26.92
2022-08-01T09:19:07.492Z,26.97
2022-08-01T09:20:08.678Z,27.02
2022-08-01T09:21:07.861Z,27.12
2022-08-01T09:22:08.642Z,27.21
2022-08-01T09:23:08.201Z,27.26
2022-08-01T09:24:08.381Z,27.29
2022-08-01T09:25:08.562Z,27.32
2022-08-01T09:26:08.742Z,27.36
2022-08-01T09:27:08.943Z,27.33
2022-08-01T09:28:09.081Z,27.36
2022-08-01T09:29:10.502Z,27.33
2022-08-01T09:30:09.452Z,27.36
2022-08-01T09:31:09.633Z,27.42
2022-08-01T09:32:16.095Z,27.49
2022-08-01T09:33:17.866Z,27.59
2022-08-01T09:34:11.163Z,27.70
2022-08-01T09:35:10.333Z,27.77
2022-08-01T09:36:13.158Z,27.92
2022-08-01T09:37:11.031Z,28.05
2022-08-01T09:38:10.892Z,28.17
2022-08-01T09:39:11.053Z,28.30
2022-08-01T09:40:11.219Z,28.47
2022-08-01T09:41:11.375Z,28.63
2022-08-01T09:42:11.553Z,28.76
2022-08-01T09:43:11.724Z,28.82
2022-08-01T09:44:11.882Z,28.91
2022-08-01T09:45:23.404Z,28.97
2022-08-01T09:46:13.235Z,29.07
2022-08-01T09:47:12.435Z,29.12
2022-08-01T09:48:12.598Z,29.20
2022-08-01T09:49:12.803Z,29.32
2022-08-01T09:50:12.926Z,29.35
2022-08-01T09:51:13.096Z,29.42
2022-08-01T09:52:14.285Z,29.54
2022-08-01T09:53:29.540Z,29.68
2022-08-01T09:54:14.606Z,29.76
2022-08-01T09:55:13.796Z,29.86
2022-08-01T09:56:13.956Z,29.91
2022-08-01T09:57:14.137Z,29.98
2022-08-01T09:58:14.297Z,30.06
2022-08-01T09:59:14.458Z,30.12
2022-08-01T10:00:24.234Z,30.15
2022-08-01T10:01:15.811Z,30.06
2022-08-01T10:02:14.977Z,30.03
2022-08-01T10:03:15.147Z,29.94
2022-08-01T10:04:15.509Z,29.86
2022-08-01T10:05:18.915Z,29.76
2022-08-01T10:06:16.655Z,29.66
2022-08-01T10:07:15.836Z,29.49
2022-08-01T10:08:15.969Z,29.39
2022-08-01T10:09:17.157Z,29.26
2022-08-01T10:10:16.342Z,29.19
2022-08-01T10:11:16.717Z,29.13
2022-08-01T10:12:16.719Z,29.01
2022-08-01T10:13:16.879Z,28.81
2022-08-01T10:14:17.683Z,28.64
2022-08-01T10:15:17.806Z,28.52
2022-08-01T10:16:17.419Z,28.44
2022-08-01T10:17:18.266Z,28.39
2022-08-01T10:18:26.115Z,28.32
2022-08-01T10:19:18.938Z,28.30
2022-08-01T10:20:30.462Z,28.30
2022-08-01T10:21:45.536Z,28.39
2022-08-01T10:22:19.472Z,28.51
2022-08-01T10:23:19.482Z,28.62
2022-08-01T10:24:19.071Z,28.69
2022-08-01T10:25:18.982Z,28.74
2022-08-01T10:26:20.151Z,28.84
2022-08-01T10:27:24.317Z,28.81
2022-08-01T10:28:23.755Z,28.84
2022-08-01T10:29:24.291Z,28.86
2022-08-01T10:30:23.781Z,28.89
2022-08-01T10:31:20.055Z,28.88
2022-08-01T10:32:21.237Z,28.88
2022-08-01T10:33:51.666Z,28.88
2022-08-01T10:34:23.042Z,28.84
2022-08-01T10:35:45.518Z,28.88
2022-08-01T10:36:22.754Z,28.94
2022-08-01T10:37:21.063Z,29.08
2022-08-01T10:38:21.216Z,29.20
2022-08-01T10:39:21.373Z,29.31
2022-08-01T10:40:37.056Z,29.27
2022-08-01T10:41:22.756Z,29.23
2022-08-01T10:42:21.944Z,29.22
2022-08-01T10:43:22.400Z,29.14
2022-08-01T10:44:22.311Z,29.08
2022-08-01T10:45:22.476Z,29.04
2022-08-01T10:46:22.655Z,28.97
2022-08-01T10:47:26.993Z,28.93
2022-08-01T10:48:24.624Z,28.91
2022-08-01T10:49:23.220Z,28.89
2022-08-01T10:50:26.164Z,28.91
2022-08-01T10:51:51.107Z,28.81
2022-08-01T10:52:24.697Z,28.78
2022-08-01T10:53:31.172Z,28.72
2022-08-01T10:54:25.795Z,28.63
2022-08-01T10:55:24.217Z,28.52
2022-08-01T10:56:26.625Z,28.39
2022-08-01T10:57:27.597Z,28.27
2022-08-01T10:58:24.718Z,28.22
2022-08-01T10:59:50.351Z,28.11
2022-08-01T11:00:26.058Z,28.07
2022-08-01T11:01:25.782Z,28.05
2022-08-01T11:02:25.428Z,28.02
2022-08-01T11:03:47.595Z,28.05
2022-08-01T11:04:26.778Z,28.00
2022-08-01T11:05:25.930Z,27.93
2022-08-01T11:06:26.097Z,27.92
2022-08-01T11:07:26.283Z,27.82
2022-08-01T11:08:27.444Z,27.77
2022-08-01T11:09:36.271Z,27.74
2022-08-01T11:10:27.779Z,27.71
2022-08-01T11:11:26.961Z,27.68
2022-08-01T11:12:27.178Z,27.64
2022-08-01T11:13:27.340Z,27.59
2022-08-01T11:14:53.694Z,27.60
2022-08-01T11:15:30.870Z,27.59
2022-08-01T11:16:28.328Z,27.54
2022-08-01T11:17:28.051Z,27.59
2022-08-01T11:18:30.790Z,27.60
2022-08-01T11:19:28.380Z,27.64
2022-08-01T11:20:28.565Z,27.71
2022-08-01T11:21:57.591Z,27.80
2022-08-01T11:22:29.921Z,27.87
2022-08-01T11:23:29.081Z,28.01
2022-08-01T11:24:30.241Z,28.11
2022-08-01T11:26:06.363Z,28.26
2022-08-01T11:26:30.571Z,28.38
2022-08-01T11:27:31.452Z,28.49
2022-08-01T11:28:32.711Z,28.67
2022-08-01T11:29:31.109Z,28.84
2022-08-01T11:30:30.269Z,29.02
2022-08-01T11:31:30.434Z,29.14
2022-08-01T11:32:42.414Z,29.31
2022-08-01T11:33:31.795Z,29.44
2022-08-01T11:34:30.953Z,29.54
2022-08-01T11:35:31.123Z,29.69
2022-08-01T11:36:56.714Z,29.76
2022-08-01T11:37:32.498Z,29.76
2022-08-01T11:38:31.719Z,29.73
2022-08-01T11:39:36.627Z,29.66
2022-08-01T11:40:32.974Z,29.59
2022-08-01T11:41:37.965Z,29.57
2022-08-01T11:42:33.344Z,29.57
2022-08-01T11:43:32.502Z,29.59
2022-08-01T11:44:32.662Z,29.61
2022-08-01T11:45:32.825Z,29.71
2022-08-01T11:46:33.027Z,29.76
2022-08-01T11:47:36.840Z,29.82
2022-08-01T11:48:33.349Z,29.94
2022-08-01T11:49:33.586Z,30.03
2022-08-01T11:50:33.664Z,30.13
2022-08-01T11:51:33.829Z,30.16
2022-08-01T11:52:34.581Z,30.27
2022-08-01T11:53:34.168Z,30.31
2022-08-01T11:54:34.875Z,30.47
2022-08-01T11:55:34.535Z,30.59
2022-08-01T11:56:34.707Z,30.68
2022-08-01T11:57:35.792Z,30.84
2022-08-01T11:58:35.048Z,31.03
2022-08-01T11:59:38.089Z,31.17
2022-08-01T12:00:36.419Z,31.31
2022-08-01T12:01:36.578Z,31.39
2022-08-01T12:02:35.853Z,31.47
2022-08-01T12:03:35.928Z,31.54
2022-08-01T12:04:36.110Z,31.61
2022-08-01T12:05:36.279Z,31.65
2022-08-01T12:06:36.448Z,31.64
2022-08-01T12:07:36.640Z,31.51
2022-08-01T12:08:36.789Z,31.40
2022-08-01T12:09:36.969Z,31.28
2022-08-01T12:10:37.140Z,31.24
2022-08-01T12:11:38.318Z,31.27
2022-08-01T12:12:37.501Z,31.31
2022-08-01T12:13:37.661Z,31.31
2022-08-01T12:14:37.820Z,31.29
2022-08-01T12:15:37.990Z,31.28
2022-08-01T12:16:38.151Z,31.27
2022-08-01T12:17:38.331Z,31.31
2022-08-01T12:18:38.481Z,31.36
2022-08-01T12:19:38.680Z,31.37
2022-08-01T12:20:42.765Z,31.42
2022-08-01T12:21:40.025Z,31.42
2022-08-01T12:22:39.192Z,31.29
2022-08-01T12:23:39.346Z,31.31
2022-08-01T12:24:39.520Z,31.28
2022-08-01T12:25:39.683Z,31.31
2022-08-01T12:26:39.843Z,31.21
2022-08-01T12:27:40.051Z,31.20
2022-08-01T12:28:40.214Z,31.15
2022-08-01T12:29:40.374Z,31.06
2022-08-01T12:30:40.554Z,30.99
2022-08-01T12:31:40.744Z,30.96
2022-08-01T12:32:40.915Z,30.99
2022-08-01T12:33:41.066Z,31.03
2022-08-01T12:34:41.224Z,31.10
2022-08-01T12:35:41.396Z,31.12
2022-08-01T12:36:41.554Z,31.14
2022-08-01T12:37:41.736Z,31.09
2022-08-01T12:38:41.884Z,31.14
2022-08-01T12:39:42.046Z,31.14
2022-08-01T12:40:45.361Z,31.12
2022-08-01T12:41:42.394Z,31.10
2022-08-01T12:42:42.583Z,31.06
2022-08-01T12:43:42.767Z,30.91
2022-08-01T12:44:42.974Z,30.88
2022-08-01T12:45:57.030Z,30.80
2022-08-01T12:46:44.646Z,30.80
2022-08-01T12:47:43.488Z,30.81
2022-08-01T12:48:43.648Z,30.87
2022-08-01T12:49:43.805Z,30.92
2022-08-01T12:50:43.967Z,30.99
2022-08-01T12:51:44.136Z,30.96
2022-08-01T12:52:45.317Z,31.00
2022-08-01T12:53:44.490Z,31.00
2022-08-01T12:54:44.688Z,31.07